Aérodrome :
LOGIN :

S'inscrire | Disclaimer

   EN    FR    IT 

 










Légende :    VFR   VFR Marginal   IFR   IFR Intensif   IFR Très Intensif
Visi : 
Plafond : 
>= 8 km
>= 3000ft
5 à 8 km
1000 à 3000 ft
1500m à 5 km
500 à 1000 ft
800 à 1500m
200 à 500 ft
< 800m
< 200 ft
Symboles :   Orages  Brouillard  Fortes neiges  Fortes précipitations  Vent > 20 kt
SIGMETs :   Divers  Orages  Givrage  Turbulence  Onde Orograph.  Cendres Volcan.






- Altitude de l'aérodrome : 34 ft
- Code IATA : BLK


EGNH - Blackpool

DERNIER METAR :
  • 281250Z 27026G36KT 9999 VCSH FEW004 SCT012 BKN017 05/03 Q0991

METARs EXPIRÉS :
  • 281220Z 26026KT 9999 -SHRA FEW005 SCT018 BKN022 06/03 Q0990
  • 281150Z 26029G39KT 9999 VCSH FEW012 BKN022 06/03 Q0990
  • 281120Z 26027KT 9999 VCSH BKN016 06/04 Q0990
  • 281050Z 26024KT 9999 VCSH FEW007 BKN020 06/03 Q0990
  • 281020Z 26025KT 9999 VCSH FEW006 BKN018 05/04 Q0990
  • 280950Z 27022KT 9999 VCSH FEW007 BKN017 06/03 Q0990

TAF TAF EGNH
Valide du 28 à 12h jusqu'au 28 à 21h UTC


281102Z 2812/2821 25018KT 9999 SCT020
TEMPO 2812/2821 28025G35KT
PROB30
TEMPO 2812/2818 7000 SHRA
ATIS : +44 1253 343 434 (x8315)



MET'MAP, la Météo Aéronautique d'un coup d'oeil ! - Copyright ORBIFLY Décembre 2007 - Disclaimer

ORBIFLY MET'MAP TEAM :

Programmation & Développement : Alexandra Zaïnal
Sur une idée originale de : Baudouin d'Aumeries
Assistance à la programmation : Marc-Olivier Méhu
Soutien technique & logistique : Manuel Goepfert

Contact : metmap@orbifly.com




SOURCES & CREDITS :

   NOAA